Terminal Aerodrome Forecast
Issued by NWS

Home | Current Version | Previous Version | Graphics & Text | Print | Product List | Glossary Off
Versions: 1 2 3 4 5 6 7 8 9 10 11 12 13 14 15 16 17 18 19 20 21 22 23

373
FTUS43 KGRB 242332
TAFMTW
TAF
KMTW 242332Z 2500/2524 12006KT P6SM SCT020 SCT070
     FM250600 13009KT P6SM SCT015 BKN060
     FM251400 15013G20KT P6SM BKN015 OVC040 PROB30 2517/2521 4SM
      -SHRA BR
     FM252100 17013G20KT 4SM SHRA BKN015 OVC025 PROB30 2521/2524 2SM
      TSRA BR BKN007 OVC015CB=

USA.gov is the U.S. government's official web portal to all federal, state and local government web resources and services.